createdAt,value
2023-05-24T00:01:57.811Z,17.88
2023-05-24T00:04:24.471Z,17.87
2023-05-24T00:06:51.832Z,17.87
2023-05-24T00:09:18.342Z,17.86
2023-05-24T00:11:44.853Z,17.87
2023-05-24T00:14:11.473Z,17.88
2023-05-24T00:16:38.122Z,17.90
2023-05-24T00:19:04.688Z,17.92
2023-05-24T00:21:31.261Z,17.92
2023-05-24T00:23:57.986Z,17.92
2023-05-24T00:26:24.488Z,17.92
2023-05-24T00:28:50.940Z,17.94
2023-05-24T00:31:17.491Z,17.97
2023-05-24T00:33:44.071Z,17.98
2023-05-24T00:36:11.139Z,17.98
2023-05-24T00:38:37.627Z,17.97
2023-05-24T00:41:04.174Z,17.96
2023-05-24T00:43:30.665Z,17.94
2023-05-24T00:46:21.458Z,17.92
2023-05-24T00:48:49.695Z,17.89
2023-05-24T00:51:16.574Z,17.87
2023-05-24T00:53:46.327Z,17.85
2023-05-24T00:56:17.205Z,17.83
2023-05-24T00:58:44.348Z,17.83
2023-05-24T01:01:11.527Z,17.83
2023-05-24T01:03:38.477Z,17.84
2023-05-24T01:06:07.353Z,17.86
2023-05-24T01:08:40.050Z,17.88
2023-05-24T01:11:13.028Z,17.90
2023-05-24T01:14:00.992Z,17.91
2023-05-24T01:16:41.669Z,17.93
2023-05-24T01:19:43.877Z,17.94
2023-05-24T01:22:13.082Z,17.90
2023-05-24T01:25:02.481Z,17.85
2023-05-24T01:27:32.141Z,17.80
2023-05-24T01:29:59.930Z,17.74
2023-05-24T01:32:27.167Z,17.71
2023-05-24T01:34:53.753Z,17.66
2023-05-24T01:37:20.270Z,17.61
2023-05-24T01:39:47.509Z,17.55
2023-05-24T01:42:27.186Z,17.51
2023-05-24T01:44:57.818Z,17.47
2023-05-24T01:47:51.634Z,17.43
2023-05-24T01:50:38.507Z,17.39
2023-05-24T01:53:09.122Z,17.39
2023-05-24T01:55:37.501Z,17.38
2023-05-24T01:58:06.312Z,17.35
2023-05-24T02:00:34.489Z,17.33
2023-05-24T02:03:01.550Z,17.30
2023-05-24T02:05:28.265Z,17.29
2023-05-24T02:07:54.859Z,17.28
2023-05-24T02:10:21.374Z,17.30
2023-05-24T02:12:48.025Z,17.30
2023-05-24T02:15:14.605Z,17.30
2023-05-24T02:17:42.266Z,17.28
2023-05-24T02:20:09.492Z,17.22
2023-05-24T02:22:36.010Z,17.17
2023-05-24T02:25:02.546Z,17.15
2023-05-24T02:27:29.100Z,17.12
2023-05-24T02:29:55.558Z,17.11
2023-05-24T02:32:22.043Z,17.11
2023-05-24T02:34:48.622Z,17.11
2023-05-24T02:37:15.229Z,17.11
2023-05-24T02:39:42.146Z,17.10
2023-05-24T02:42:08.924Z,17.10
2023-05-24T02:44:35.499Z,17.07
2023-05-24T02:47:02.040Z,17.06
2023-05-24T02:49:28.586Z,17.04
2023-05-24T02:51:55.072Z,17.02
2023-05-24T02:54:21.556Z,17.00
2023-05-24T02:56:48.066Z,16.99
2023-05-24T02:59:14.598Z,16.97
2023-05-24T03:01:41.175Z,16.94
2023-05-24T03:04:07.837Z,16.90
2023-05-24T03:06:34.475Z,16.87
2023-05-24T03:09:00.998Z,16.83
2023-05-24T03:11:27.508Z,16.78
2023-05-24T03:13:53.999Z,16.71
2023-05-24T03:16:20.571Z,16.68
2023-05-24T03:18:47.110Z,16.65
2023-05-24T03:21:13.705Z,16.64
2023-05-24T03:23:40.276Z,16.63
2023-05-24T03:26:06.784Z,16.61
2023-05-24T03:28:33.401Z,16.61
2023-05-24T03:30:59.984Z,16.61
2023-05-24T03:33:26.515Z,16.64
2023-05-24T03:35:53.157Z,16.65
2023-05-24T03:38:19.643Z,16.66
2023-05-24T03:40:46.145Z,16.67
2023-05-24T03:43:12.647Z,16.68
2023-05-24T03:45:40.180Z,16.69
2023-05-24T03:48:07.031Z,16.69
2023-05-24T03:50:33.598Z,16.68
2023-05-24T03:53:00.187Z,16.70
2023-05-24T03:55:26.782Z,16.71
2023-05-24T03:57:53.324Z,16.71
2023-05-24T04:00:19.921Z,16.71
2023-05-24T04:02:46.529Z,16.71
2023-05-24T04:05:13.905Z,16.72
2023-05-24T04:07:40.919Z,16.73
2023-05-24T04:10:08.212Z,16.76
2023-05-24T04:12:35.256Z,16.79
2023-05-24T04:15:02.151Z,16.80
2023-05-24T04:17:28.860Z,16.81
2023-05-24T04:19:55.785Z,16.83
2023-05-24T04:22:23.776Z,16.85
2023-05-24T04:24:52.454Z,16.88
2023-05-24T04:27:18.953Z,16.93
2023-05-24T04:29:45.608Z,16.96
2023-05-24T04:32:12.187Z,17.00
2023-05-24T04:34:38.659Z,17.04
2023-05-24T04:37:05.238Z,17.09
2023-05-24T04:39:31.759Z,17.10
2023-05-24T04:41:58.294Z,17.11
2023-05-24T04:44:24.756Z,17.11
2023-05-24T04:46:51.306Z,17.10
2023-05-24T04:49:17.909Z,17.09
2023-05-24T04:51:44.456Z,17.11
2023-05-24T04:54:10.979Z,17.14
2023-05-24T04:56:38.509Z,17.19
2023-05-24T04:59:06.195Z,17.23
2023-05-24T05:01:32.856Z,17.25
2023-05-24T05:04:00.013Z,17.28
2023-05-24T05:06:26.670Z,17.31
2023-05-24T05:08:53.195Z,17.38
2023-05-24T05:11:19.768Z,17.48
2023-05-24T05:13:46.265Z,17.57
2023-05-24T05:16:13.007Z,17.65
2023-05-24T05:18:39.507Z,17.71
2023-05-24T05:21:06.034Z,17.76
2023-05-24T05:23:32.615Z,17.82
2023-05-24T05:25:59.078Z,17.87
2023-05-24T05:28:25.571Z,17.94
2023-05-24T05:30:52.189Z,18.04
2023-05-24T05:33:18.765Z,18.15
2023-05-24T05:35:45.350Z,18.25
2023-05-24T05:38:11.814Z,18.29
2023-05-24T05:40:38.364Z,18.29
2023-05-24T05:43:04.985Z,18.31
2023-05-24T05:45:31.612Z,18.32
2023-05-24T05:47:58.109Z,18.34
2023-05-24T05:50:24.746Z,18.41
2023-05-24T05:52:51.248Z,18.46
2023-05-24T05:55:17.759Z,18.50
2023-05-24T05:57:44.288Z,18.53
2023-05-24T06:00:11.261Z,18.57
2023-05-24T06:02:37.801Z,18.64
2023-05-24T06:05:04.611Z,18.71
2023-05-24T06:07:31.212Z,18.75
2023-05-24T06:09:57.775Z,18.74
2023-05-24T06:12:24.282Z,18.78
2023-05-24T06:14:50.787Z,18.80
2023-05-24T06:17:17.277Z,18.86
2023-05-24T06:19:43.782Z,18.90
2023-05-24T06:22:10.346Z,18.96
2023-05-24T06:24:36.813Z,18.98
2023-05-24T06:27:05.307Z,19.00
2023-05-24T06:29:32.228Z,19.02
2023-05-24T06:31:58.915Z,19.05
2023-05-24T06:34:25.587Z,19.12
2023-05-24T06:36:52.204Z,19.18
2023-05-24T06:39:19.011Z,19.24
2023-05-24T06:41:45.644Z,19.34
2023-05-24T06:44:12.167Z,19.43
2023-05-24T06:46:39.430Z,19.48
2023-05-24T06:49:06.049Z,19.59
2023-05-24T06:51:32.574Z,19.66
2023-05-24T06:53:59.136Z,19.70
2023-05-24T06:56:25.821Z,19.79
2023-05-24T06:58:52.588Z,19.85
2023-05-24T07:01:19.248Z,19.89
2023-05-24T07:03:45.797Z,19.95
2023-05-24T07:06:12.328Z,20.01
2023-05-24T07:08:38.870Z,20.04
2023-05-24T07:11:05.565Z,20.04
2023-05-24T07:13:32.107Z,20.04
2023-05-24T07:15:58.608Z,20.07
2023-05-24T07:18:25.256Z,20.14
2023-05-24T07:20:51.938Z,20.24
2023-05-24T07:23:18.526Z,20.34
2023-05-24T07:25:45.044Z,20.46
2023-05-24T07:28:11.594Z,20.59
2023-05-24T07:30:38.113Z,20.66
2023-05-24T07:33:04.683Z,20.68
2023-05-24T07:35:31.304Z,20.67
2023-05-24T07:37:57.879Z,20.66
2023-05-24T07:40:25.720Z,20.63
2023-05-24T07:42:52.413Z,20.62
2023-05-24T07:45:18.925Z,20.64
2023-05-24T07:47:45.486Z,20.69
2023-05-24T07:50:12.137Z,20.76
2023-05-24T07:52:38.668Z,20.84
2023-05-24T07:55:06.151Z,20.92
2023-05-24T07:57:32.674Z,21.00
2023-05-24T07:59:59.179Z,21.08
2023-05-24T08:02:25.773Z,21.07
2023-05-24T08:04:52.290Z,21.07
2023-05-24T08:07:19.032Z,21.10
2023-05-24T08:09:45.605Z,21.13
2023-05-24T08:12:13.018Z,21.17
2023-05-24T08:14:40.849Z,21.25
2023-05-24T08:17:07.408Z,21.37
2023-05-24T08:19:33.895Z,21.50
2023-05-24T08:22:00.556Z,21.58
2023-05-24T08:24:27.030Z,21.59
2023-05-24T08:26:53.584Z,21.52
2023-05-24T08:29:20.149Z,21.45
2023-05-24T08:31:46.694Z,21.41
2023-05-24T08:34:13.951Z,21.38
2023-05-24T08:36:40.677Z,21.36
2023-05-24T08:39:07.210Z,21.35
2023-05-24T08:41:34.028Z,21.42
2023-05-24T08:44:01.025Z,21.50
2023-05-24T08:46:28.857Z,21.56
2023-05-24T08:48:57.716Z,21.64
2023-05-24T08:51:24.540Z,21.74
2023-05-24T08:53:52.069Z,21.80
2023-05-24T08:56:19.276Z,21.87
2023-05-24T08:58:46.037Z,21.95
2023-05-24T09:01:14.421Z,22.03
2023-05-24T09:03:42.971Z,22.11
2023-05-24T09:06:10.902Z,22.16
2023-05-24T09:08:38.172Z,22.20
2023-05-24T09:11:07.272Z,22.33
2023-05-24T09:13:34.034Z,22.45
2023-05-24T09:16:01.691Z,22.49
2023-05-24T09:18:28.571Z,22.49
2023-05-24T09:20:55.605Z,22.51
2023-05-24T09:23:22.881Z,22.45
2023-05-24T09:25:50.067Z,22.43
2023-05-24T09:28:19.935Z,22.49
2023-05-24T09:30:58.226Z,22.57
2023-05-24T09:33:32.117Z,22.68
2023-05-24T09:35:59.952Z,22.76
2023-05-24T09:38:27.330Z,22.82
2023-05-24T09:41:07.896Z,22.84
2023-05-24T09:43:35.528Z,22.87
2023-05-24T09:46:03.811Z,22.94
2023-05-24T09:48:30.955Z,23.03
2023-05-24T09:51:00.528Z,23.12
2023-05-24T09:53:27.167Z,23.15
2023-05-24T09:55:54.423Z,23.20
2023-05-24T09:58:21.004Z,23.30
2023-05-24T10:00:48.045Z,23.42
2023-05-24T10:03:14.838Z,23.51
2023-05-24T10:05:45.548Z,23.60
2023-05-24T10:08:12.622Z,23.64
2023-05-24T10:10:39.170Z,23.61
2023-05-24T10:13:05.814Z,23.68
2023-05-24T10:15:32.411Z,23.74
2023-05-24T10:17:59.164Z,23.79
2023-05-24T10:20:25.898Z,23.85
2023-05-24T10:22:55.369Z,23.86
2023-05-24T10:25:23.999Z,23.77
2023-05-24T10:27:54.248Z,23.70
2023-05-24T10:30:26.570Z,23.80
2023-05-24T10:32:55.669Z,23.93
2023-05-24T10:35:23.151Z,24.02
2023-05-24T10:37:50.256Z,24.14
2023-05-24T10:40:21.285Z,24.27
2023-05-24T10:42:48.478Z,24.35
2023-05-24T10:45:30.268Z,24.48
2023-05-24T10:47:56.868Z,24.66
2023-05-24T10:50:23.669Z,24.86
2023-05-24T10:52:50.256Z,25.01
2023-05-24T10:55:19.475Z,25.02
2023-05-24T10:57:45.975Z,24.99
2023-05-24T11:00:33.919Z,25.14
2023-05-24T11:03:06.413Z,25.46
2023-05-24T11:05:35.408Z,25.88
2023-05-24T11:08:02.413Z,26.42
2023-05-24T11:10:32.554Z,26.95
2023-05-24T11:13:02.954Z,27.33
2023-05-24T11:15:29.980Z,27.50
2023-05-24T11:18:08.955Z,27.41
2023-05-24T11:20:35.970Z,27.09
2023-05-24T11:23:04.082Z,26.80
2023-05-24T11:25:30.641Z,26.65
2023-05-24T11:27:58.809Z,26.50
2023-05-24T11:30:25.381Z,26.33
2023-05-24T11:32:51.976Z,26.19
2023-05-24T11:35:21.282Z,26.09
2023-05-24T11:37:47.840Z,25.99
2023-05-24T11:40:14.613Z,25.93
2023-05-24T11:42:41.731Z,25.99
2023-05-24T11:45:09.071Z,26.11
2023-05-24T11:47:38.369Z,26.22
2023-05-24T11:50:05.589Z,26.24
2023-05-24T11:52:32.304Z,26.17
2023-05-24T11:54:58.844Z,26.10
2023-05-24T11:57:38.167Z,26.06
2023-05-24T12:00:05.398Z,26.02
2023-05-24T12:02:32.064Z,26.00
2023-05-24T12:05:07.285Z,25.92
2023-05-24T12:07:34.331Z,25.84
2023-05-24T12:10:00.847Z,25.84
2023-05-24T12:12:33.933Z,25.95
2023-05-24T12:15:08.088Z,26.06
2023-05-24T12:17:34.661Z,26.14
2023-05-24T12:20:03.177Z,26.29
2023-05-24T12:22:29.757Z,26.43
2023-05-24T12:24:57.045Z,26.41
2023-05-24T12:27:27.931Z,26.26
2023-05-24T12:29:54.422Z,26.17
2023-05-24T12:32:21.342Z,26.17
2023-05-24T12:34:49.801Z,26.22
2023-05-24T12:37:17.398Z,26.30
2023-05-24T12:39:44.740Z,26.38
2023-05-24T12:42:12.206Z,26.43
2023-05-24T12:44:39.297Z,26.36
2023-05-24T12:47:07.728Z,26.24
2023-05-24T12:49:34.607Z,26.24
2023-05-24T12:52:01.259Z,26.29
2023-05-24T12:54:28.833Z,26.30
2023-05-24T12:56:57.236Z,26.29
2023-05-24T12:59:24.311Z,26.31
2023-05-24T13:01:50.925Z,26.38
2023-05-24T13:04:18.555Z,26.41
2023-05-24T13:06:45.207Z,26.34
2023-05-24T13:09:11.751Z,26.33
2023-05-24T13:11:38.340Z,26.34
2023-05-24T13:14:04.858Z,26.35
2023-05-24T13:16:31.448Z,26.36
2023-05-24T13:18:58.016Z,26.42
2023-05-24T13:21:24.598Z,26.52
2023-05-24T13:23:51.115Z,26.60
2023-05-24T13:26:17.762Z,26.70
2023-05-24T13:28:59.033Z,26.83
2023-05-24T13:31:31.307Z,26.93
2023-05-24T13:33:57.952Z,26.93
2023-05-24T13:36:24.494Z,26.83
2023-05-24T13:39:02.297Z,26.63
2023-05-24T13:41:37.584Z,26.48
2023-05-24T13:44:04.383Z,26.45
2023-05-24T13:46:31.147Z,26.45
2023-05-24T13:48:57.680Z,26.36
2023-05-24T13:51:24.512Z,26.28
2023-05-24T13:53:51.027Z,26.18
2023-05-24T13:56:17.574Z,26.10
2023-05-24T13:58:44.476Z,26.15
2023-05-24T14:01:11.142Z,26.21
2023-05-24T14:03:37.914Z,26.20
2023-05-24T14:06:04.547Z,26.19
2023-05-24T14:08:31.081Z,26.20
2023-05-24T14:10:57.588Z,26.20
2023-05-24T14:14:07.476Z,26.17
2023-05-24T14:16:11.053Z,26.11
2023-05-24T14:18:37.635Z,26.03
2023-05-24T14:21:04.156Z,25.92
2023-05-24T14:23:31.130Z,25.84
2023-05-24T14:25:58.197Z,25.77
2023-05-24T14:28:24.972Z,25.72
2023-05-24T14:30:51.506Z,25.68
2023-05-24T14:33:18.029Z,25.66
2023-05-24T14:35:44.750Z,25.61
2023-05-24T14:38:11.820Z,25.51
2023-05-24T14:40:39.022Z,25.38
2023-05-24T14:43:07.227Z,25.25
2023-05-24T14:45:33.962Z,25.14
2023-05-24T14:48:00.540Z,25.08
2023-05-24T14:50:27.124Z,25.08
2023-05-24T14:52:55.325Z,25.07
2023-05-24T14:55:22.478Z,25.05
2023-05-24T14:57:49.182Z,25.02
2023-05-24T15:00:16.217Z,25.01
2023-05-24T15:02:42.903Z,24.98
2023-05-24T15:05:09.665Z,24.91
2023-05-24T15:07:36.188Z,24.85
2023-05-24T15:10:03.164Z,24.80
2023-05-24T15:12:29.667Z,24.81
2023-05-24T15:14:56.194Z,24.82
2023-05-24T15:17:22.785Z,24.84
2023-05-24T15:19:49.776Z,24.82
2023-05-24T15:22:16.349Z,24.78
2023-05-24T15:24:42.926Z,24.73
2023-05-24T15:27:09.463Z,24.70
2023-05-24T15:29:36.235Z,24.67
2023-05-24T15:32:02.747Z,24.66
2023-05-24T15:34:29.223Z,24.68
2023-05-24T15:36:55.747Z,24.67
2023-05-24T15:39:22.267Z,24.62
2023-05-24T15:41:48.997Z,24.59
2023-05-24T15:44:15.498Z,24.59
2023-05-24T15:46:42.037Z,24.56
2023-05-24T15:49:08.547Z,24.51
2023-05-24T15:52:02.930Z,24.45
2023-05-24T15:54:22.322Z,24.33
2023-05-24T15:56:48.870Z,24.26
2023-05-24T15:59:15.738Z,24.19
2023-05-24T16:01:42.291Z,24.13
2023-05-24T16:04:09.087Z,24.07
2023-05-24T16:06:35.685Z,23.99
2023-05-24T16:09:02.596Z,23.94
2023-05-24T16:11:29.078Z,23.92
2023-05-24T16:13:55.550Z,23.93
2023-05-24T16:16:22.085Z,23.92
2023-05-24T16:18:48.903Z,23.88
2023-05-24T16:21:15.482Z,23.83
2023-05-24T16:23:42.007Z,23.76
2023-05-24T16:26:08.643Z,23.70
2023-05-24T16:28:35.186Z,23.65
2023-05-24T16:31:01.701Z,23.63
2023-05-24T16:33:28.380Z,23.60
2023-05-24T16:35:54.879Z,23.58
2023-05-24T16:38:25.358Z,23.51
2023-05-24T16:40:52.403Z,23.43
2023-05-24T16:43:19.057Z,23.38
2023-05-24T16:45:45.844Z,23.32
2023-05-24T16:48:13.228Z,23.28
2023-05-24T16:50:40.406Z,23.23
2023-05-24T16:53:07.056Z,23.16
2023-05-24T16:55:33.613Z,23.13
2023-05-24T16:58:00.235Z,23.11
2023-05-24T17:00:26.879Z,23.10
2023-05-24T17:02:53.452Z,23.09
2023-05-24T17:05:20.061Z,23.09
2023-05-24T17:07:46.563Z,23.08
2023-05-24T17:10:13.096Z,23.02
2023-05-24T17:12:39.654Z,22.98
2023-05-24T17:15:06.535Z,22.92
2023-05-24T17:17:33.072Z,22.86
2023-05-24T17:19:59.720Z,22.81
2023-05-24T17:22:26.581Z,22.75
2023-05-24T17:24:53.058Z,22.66
2023-05-24T17:27:22.095Z,22.58
2023-05-24T17:29:49.140Z,22.51
2023-05-24T17:32:15.584Z,22.44
2023-05-24T17:34:42.120Z,22.38
2023-05-24T17:37:08.639Z,22.31
2023-05-24T17:39:35.113Z,22.24
2023-05-24T17:42:01.672Z,22.18
2023-05-24T17:44:28.161Z,22.13
2023-05-24T17:46:54.702Z,22.08
2023-05-24T17:49:21.308Z,22.04
2023-05-24T17:51:47.846Z,21.97
2023-05-24T17:54:14.338Z,21.91
2023-05-24T17:56:40.896Z,21.86
2023-05-24T17:59:07.457Z,21.81
2023-05-24T18:01:34.016Z,21.76
2023-05-24T18:04:00.531Z,21.71
2023-05-24T18:06:27.092Z,21.64
2023-05-24T18:08:53.920Z,21.58
2023-05-24T18:11:20.420Z,21.53
2023-05-24T18:13:46.914Z,21.48
2023-05-24T18:16:13.920Z,21.45
2023-05-24T18:18:40.496Z,21.41
2023-05-24T18:21:08.039Z,21.36
2023-05-24T18:23:34.564Z,21.31
2023-05-24T18:26:03.092Z,21.26
2023-05-24T18:28:29.954Z,21.22
2023-05-24T18:30:56.493Z,21.18
2023-05-24T18:33:23.156Z,21.15
2023-05-24T18:35:49.764Z,21.10
2023-05-24T18:38:16.361Z,21.04
2023-05-24T18:40:43.076Z,21.00
2023-05-24T18:43:09.644Z,20.97
2023-05-24T18:45:36.168Z,20.93
2023-05-24T18:48:02.822Z,20.88
2023-05-24T18:50:29.361Z,20.82
2023-05-24T18:52:55.966Z,20.79
2023-05-24T18:55:22.512Z,20.75
2023-05-24T18:57:49.116Z,20.71
2023-05-24T19:00:16.039Z,20.67
2023-05-24T19:02:42.617Z,20.62
2023-05-24T19:05:09.434Z,20.57
2023-05-24T19:07:36.808Z,20.52
2023-05-24T19:10:03.961Z,20.47
2023-05-24T19:12:30.620Z,20.42
2023-05-24T19:14:57.288Z,20.37
2023-05-24T19:17:25.027Z,20.32
2023-05-24T19:19:52.169Z,20.29
2023-05-24T19:22:18.802Z,20.25
2023-05-24T19:24:45.470Z,20.18
2023-05-24T19:27:11.978Z,20.14
2023-05-24T19:29:38.560Z,20.11
2023-05-24T19:32:05.747Z,20.10
2023-05-24T19:34:32.509Z,20.10
2023-05-24T19:36:59.046Z,20.09
2023-05-24T19:39:25.571Z,20.06
2023-05-24T19:41:52.144Z,20.04
2023-05-24T19:44:19.225Z,20.01
2023-05-24T19:46:45.989Z,19.99
2023-05-24T19:49:12.590Z,19.97
2023-05-24T19:51:39.119Z,19.93
2023-05-24T19:54:05.716Z,19.88
2023-05-24T19:56:32.265Z,19.82
2023-05-24T19:58:58.828Z,19.76
2023-05-24T20:01:25.643Z,19.70
2023-05-24T20:03:52.371Z,19.68
2023-05-24T20:06:19.055Z,19.64
2023-05-24T20:08:45.730Z,19.58
2023-05-24T20:11:12.326Z,19.53
2023-05-24T20:13:41.420Z,19.48
2023-05-24T20:16:07.970Z,19.46
2023-05-24T20:18:34.546Z,19.44
2023-05-24T20:21:02.433Z,19.42
2023-05-24T20:23:29.048Z,19.37
2023-05-24T20:25:55.609Z,19.31
2023-05-24T20:28:30.623Z,19.26
2023-05-24T20:30:58.617Z,19.21
2023-05-24T20:33:25.157Z,19.15
2023-05-24T20:35:51.680Z,19.11
2023-05-24T20:38:18.248Z,19.07
2023-05-24T20:40:44.802Z,19.02
2023-05-24T20:43:11.305Z,18.96
2023-05-24T20:45:37.929Z,18.93
2023-05-24T20:48:04.697Z,18.90
2023-05-24T20:50:31.289Z,18.87
2023-05-24T20:52:57.893Z,18.86
2023-05-24T20:55:26.555Z,18.85
2023-05-24T20:57:53.560Z,18.83
2023-05-24T21:00:20.128Z,18.81
2023-05-24T21:02:46.795Z,18.78
2023-05-24T21:05:13.439Z,18.74
2023-05-24T21:07:40.034Z,18.71
2023-05-24T21:10:07.266Z,18.68
2023-05-24T21:12:33.801Z,18.66
2023-05-24T21:15:00.349Z,18.64
2023-05-24T21:17:26.885Z,18.62
2023-05-24T21:19:53.483Z,18.62
2023-05-24T21:22:20.030Z,18.59
2023-05-24T21:24:46.783Z,18.56
2023-05-24T21:27:13.446Z,18.56
2023-05-24T21:29:39.972Z,18.56
2023-05-24T21:32:06.533Z,18.57
2023-05-24T21:34:33.049Z,18.58
2023-05-24T21:36:59.564Z,18.59
2023-05-24T21:39:26.059Z,18.60
2023-05-24T21:41:52.655Z,18.59
2023-05-24T21:44:19.209Z,18.58
2023-05-24T21:46:45.734Z,18.58
2023-05-24T21:49:12.325Z,18.57
2023-05-24T21:51:38.950Z,18.54
2023-05-24T21:54:05.639Z,18.52
2023-05-24T21:56:32.140Z,18.49
2023-05-24T21:58:58.733Z,18.46
2023-05-24T22:01:25.287Z,18.44
2023-05-24T22:03:51.913Z,18.39
2023-05-24T22:06:18.523Z,18.33
2023-05-24T22:08:45.081Z,18.30
2023-05-24T22:11:11.585Z,18.29
2023-05-24T22:13:38.109Z,18.28
2023-05-24T22:16:04.929Z,18.27
2023-05-24T22:18:31.486Z,18.26
2023-05-24T22:20:58.103Z,18.27
2023-05-24T22:23:25.825Z,18.27
2023-05-24T22:25:52.326Z,18.27
2023-05-24T22:28:18.923Z,18.26
2023-05-24T22:30:47.038Z,18.21
2023-05-24T22:33:13.768Z,18.16
2023-05-24T22:35:40.354Z,18.13
2023-05-24T22:38:07.012Z,18.10
2023-05-24T22:40:33.576Z,18.07
2023-05-24T22:43:00.152Z,18.06
2023-05-24T22:45:26.698Z,18.06
2023-05-24T22:47:53.257Z,18.07
2023-05-24T22:50:19.909Z,18.08
2023-05-24T22:52:46.487Z,18.10
2023-05-24T22:55:12.981Z,18.12
2023-05-24T22:57:39.543Z,18.09
2023-05-24T23:00:06.760Z,18.06
2023-05-24T23:02:33.317Z,18.04
2023-05-24T23:04:59.857Z,18.02
2023-05-24T23:07:26.446Z,17.99
2023-05-24T23:09:52.903Z,17.97
2023-05-24T23:12:19.443Z,17.97
2023-05-24T23:14:45.940Z,17.96
2023-05-24T23:17:12.662Z,17.96
2023-05-24T23:19:40.192Z,17.93
2023-05-24T23:22:06.705Z,17.90
2023-05-24T23:24:33.243Z,17.85
2023-05-24T23:26:59.752Z,17.82
2023-05-24T23:29:26.255Z,17.78
2023-05-24T23:31:52.812Z,17.78
2023-05-24T23:34:19.430Z,17.76
2023-05-24T23:36:45.923Z,17.73
2023-05-24T23:39:12.445Z,17.71
2023-05-24T23:41:38.926Z,17.70
2023-05-24T23:44:05.469Z,17.68
2023-05-24T23:46:32.150Z,17.65
2023-05-24T23:48:58.789Z,17.61
2023-05-24T23:51:25.282Z,17.57
2023-05-24T23:53:51.832Z,17.53
2023-05-24T23:56:18.381Z,17.51
2023-05-24T23:58:44.893Z,17.50
